createdAt,value
2022-08-07T00:00:39.834Z,102606.38
2022-08-07T00:03:47.227Z,102615.22
2022-08-07T00:06:52.387Z,102606.59
2022-08-07T00:10:19.196Z,102613.00
2022-08-07T00:13:25.873Z,102605.84
2022-08-07T00:16:31.087Z,102606.69
2022-08-07T00:20:01.524Z,102610.13
2022-08-07T00:23:00.354Z,102602.13
2022-08-07T00:26:18.628Z,102615.97
2022-08-07T00:29:32.171Z,102613.50
2022-08-07T00:32:36.315Z,102608.97
2022-08-07T00:35:40.886Z,102614.16
2022-08-07T00:38:45.318Z,102595.13
2022-08-07T00:42:02.282Z,102602.59
2022-08-07T00:45:16.259Z,102610.38
2022-08-07T00:48:25.046Z,102591.66
2022-08-07T00:51:58.429Z,102590.53
2022-08-07T00:55:05.002Z,102595.66
2022-08-07T00:58:15.185Z,102600.91
2022-08-07T01:01:20.344Z,102596.47
2022-08-07T01:04:25.097Z,102585.16
2022-08-07T01:07:31.245Z,102571.25
2022-08-07T01:10:35.797Z,102557.22
2022-08-07T01:13:40.723Z,102562.28
2022-08-07T01:17:00.263Z,102562.28
2022-08-07T01:20:16.548Z,102569.31
2022-08-07T01:23:35.452Z,102548.63
2022-08-07T01:26:43.418Z,102541.34
2022-08-07T01:29:56.616Z,102556.22
2022-08-07T01:33:02.266Z,102544.22
2022-08-07T01:36:09.476Z,102542.25
2022-08-07T01:39:14.553Z,102578.13
2022-08-07T01:42:37.725Z,102584.38
2022-08-07T01:45:46.706Z,102582.03
2022-08-07T01:48:51.103Z,102572.44
2022-08-07T01:52:02.625Z,102575.00
2022-08-07T01:55:09.791Z,102579.22
2022-08-07T01:58:33.403Z,102568.78
2022-08-07T02:02:02.344Z,102578.19
2022-08-07T02:05:16.103Z,102586.97
2022-08-07T02:08:42.357Z,102587.81
2022-08-07T02:12:04.032Z,102583.31
2022-08-07T02:15:10.385Z,102570.16
2022-08-07T02:18:18.221Z,102556.00
2022-08-07T02:21:23.702Z,102557.00
2022-08-07T02:24:30.424Z,102553.47
2022-08-07T02:27:35.604Z,102551.63
2022-08-07T02:30:46.486Z,102548.06
2022-08-07T02:34:03.978Z,102530.38
2022-08-07T02:37:16.430Z,102512.81
2022-08-07T02:40:30.932Z,102495.25
2022-08-07T02:43:41.162Z,102499.59
2022-08-07T02:46:51.816Z,102499.78
2022-08-07T02:49:59.652Z,102499.03
2022-08-07T02:53:10.932Z,102498.28
2022-08-07T02:56:21.747Z,102498.34
2022-08-07T02:59:27.869Z,102509.69
2022-08-07T03:02:33.810Z,102505.41
2022-08-07T03:05:39.525Z,102501.88
2022-08-07T03:08:46.244Z,102513.31
2022-08-07T03:11:52.407Z,102508.09
2022-08-07T03:15:07.476Z,102502.81
2022-08-07T03:18:17.664Z,102508.09
2022-08-07T03:21:25.281Z,102499.34
2022-08-07T03:24:29.715Z,102507.28
2022-08-07T03:27:58.683Z,102502.94
2022-08-07T03:31:18.074Z,102504.78
2022-08-07T03:34:22.964Z,102505.56
2022-08-07T03:37:45.971Z,102502.94
2022-08-07T03:40:53.899Z,102513.59
2022-08-07T03:44:02.455Z,102515.31
2022-08-07T03:47:10.837Z,102514.41
2022-08-07T03:50:23.405Z,102514.41
2022-08-07T03:53:30.324Z,102513.50
2022-08-07T03:57:03.469Z,102502.94
2022-08-07T04:00:10.485Z,102503.03
2022-08-07T04:03:16.949Z,102503.03
2022-08-07T04:06:37.258Z,102496.91
2022-08-07T04:09:45.160Z,102491.63
2022-08-07T04:12:55.275Z,102495.28
2022-08-07T04:15:59.592Z,102497.16
2022-08-07T04:19:12.594Z,102499.00
2022-08-07T04:22:19.662Z,102502.59
2022-08-07T04:25:29.170Z,102513.16
2022-08-07T04:28:34.006Z,102516.66
2022-08-07T04:32:03.345Z,102520.22
2022-08-07T04:35:05.929Z,102522.88
2022-08-07T04:38:13.213Z,102530.78
2022-08-07T04:41:18.117Z,102532.53
2022-08-07T04:44:23.625Z,102542.16
2022-08-07T04:47:58.611Z,102539.47
2022-08-07T04:51:28.670Z,102531.38
2022-08-07T04:54:50.625Z,102528.63
2022-08-07T04:58:15.730Z,102533.72
2022-08-07T05:01:57.312Z,102537.94
2022-08-07T05:05:53.831Z,102523.72
2022-08-07T05:09:02.489Z,102530.59
2022-08-07T05:12:10.202Z,102525.22
2022-08-07T05:15:26.912Z,102515.44
2022-08-07T05:18:35.333Z,102521.41
2022-08-07T05:21:59.942Z,102515.28
2022-08-07T05:25:08.672Z,102526.47
2022-08-07T05:28:22.580Z,102531.78
2022-08-07T05:31:38.534Z,102542.22
2022-08-07T05:34:43.801Z,102538.56
2022-08-07T05:37:48.475Z,102540.16
2022-08-07T05:41:15.670Z,102547.91
2022-08-07T05:44:29.047Z,102548.78
2022-08-07T05:47:38.491Z,102542.41
2022-08-07T05:51:01.376Z,102545.63
2022-08-07T05:54:12.636Z,102546.25
2022-08-07T05:57:37.756Z,102546.03
2022-08-07T06:00:46.351Z,102539.63
2022-08-07T06:04:01.123Z,102533.81
2022-08-07T06:07:06.118Z,102532.63
2022-08-07T06:10:15.264Z,102526.22
2022-08-07T06:13:20.869Z,102526.78
2022-08-07T06:16:50.488Z,102525.53
2022-08-07T06:20:04.529Z,102519.94
2022-08-07T06:23:46.869Z,102516.16
2022-08-07T06:26:34.978Z,102520.34
2022-08-07T06:29:39.272Z,102516.91
2022-08-07T06:32:44.044Z,102514.03
2022-08-07T06:36:12.973Z,102520.69
2022-08-07T06:40:18.290Z,102523.94
2022-08-07T06:42:40.337Z,102510.50
2022-08-07T06:45:45.444Z,102510.03
2022-08-07T06:48:50.153Z,102507.91
2022-08-07T06:51:59.421Z,102499.69
2022-08-07T06:55:34.547Z,102510.81
2022-08-07T07:00:12.288Z,102496.31
2022-08-07T07:02:49.312Z,102486.19
2022-08-07T07:06:03.981Z,102482.38
2022-08-07T07:09:19.490Z,102488.13
2022-08-07T07:12:48.694Z,102486.69
2022-08-07T07:16:03.118Z,102477.66
2022-08-07T07:19:40.965Z,102474.53
2022-08-07T07:24:05.218Z,102482.97
2022-08-07T07:26:33.836Z,102473.84
2022-08-07T07:29:56.559Z,102444.44
2022-08-07T07:32:57.774Z,102417.56
2022-08-07T07:36:05.048Z,102419.75
2022-08-07T07:39:17.677Z,102417.63
2022-08-07T07:42:32.584Z,102396.41
2022-08-07T07:46:40.607Z,102413.13
2022-08-07T07:49:08.895Z,102421.88
2022-08-07T07:52:30.587Z,102415.28
2022-08-07T07:55:45.389Z,102421.88
2022-08-07T07:59:05.885Z,102409.19
2022-08-07T08:02:11.561Z,102410.03
2022-08-07T08:05:54.527Z,102415.19
2022-08-07T08:09:02.183Z,102437.81
2022-08-07T08:12:07.121Z,102420.63
2022-08-07T08:15:11.575Z,102416.88
2022-08-07T08:18:18.032Z,102430.78
2022-08-07T08:21:55.925Z,102439.19
2022-08-07T08:25:42.527Z,102427.13
2022-08-07T08:28:49.230Z,102406.34
2022-08-07T08:32:17.132Z,102395.53
2022-08-07T08:35:28.740Z,102385.00
2022-08-07T08:38:40.504Z,102380.44
2022-08-07T08:41:59.209Z,102396.22
2022-08-07T08:45:42.038Z,102387.84
2022-08-07T08:49:18.728Z,102367.44
2022-08-07T08:53:06.923Z,102382.50
2022-08-07T08:56:24.687Z,102380.59
2022-08-07T08:59:42.079Z,102396.25
2022-08-07T09:03:03.908Z,102381.66
2022-08-07T09:06:22.271Z,102374.59
2022-08-07T09:09:56.877Z,102341.88
2022-08-07T09:13:10.767Z,102348.06
2022-08-07T09:16:30.393Z,102361.13
2022-08-07T09:19:51.837Z,102363.97
2022-08-07T09:24:33.137Z,102372.09
2022-08-07T09:27:16.432Z,102382.38
2022-08-07T09:30:27.932Z,102388.88
2022-08-07T09:33:56.730Z,102382.72
2022-08-07T09:37:33.544Z,102396.84
2022-08-07T09:41:07.723Z,102390.09
2022-08-07T09:44:58.426Z,102354.88
2022-08-07T09:48:45.362Z,102323.22
2022-08-07T09:52:16.384Z,102332.50
2022-08-07T09:56:03.341Z,102345.50
2022-08-07T10:00:14.880Z,102369.19
2022-08-07T10:04:06.248Z,102344.13
2022-08-07T10:07:53.532Z,102352.00
2022-08-07T10:11:59.405Z,102329.41
2022-08-07T10:15:30.000Z,102327.50
2022-08-07T10:19:11.428Z,102338.13
2022-08-07T10:22:34.266Z,102328.88
2022-08-07T10:25:58.941Z,102329.47
2022-08-07T10:29:11.489Z,102311.88
2022-08-07T10:32:51.111Z,102317.91
2022-08-07T10:36:36.172Z,102317.66
2022-08-07T10:40:02.837Z,102339.16
2022-08-07T10:43:35.086Z,102341.88
2022-08-07T10:47:11.729Z,102342.34
2022-08-07T10:50:34.466Z,102283.06
2022-08-07T10:54:04.382Z,102278.53
2022-08-07T10:57:11.539Z,102278.94
2022-08-07T11:00:39.433Z,102286.59
2022-08-07T11:04:16.960Z,102269.25
2022-08-07T11:07:59.305Z,102241.06
2022-08-07T11:11:14.011Z,102245.69
2022-08-07T11:15:00.198Z,102257.22
2022-08-07T11:18:40.316Z,102284.94
2022-08-07T11:22:04.907Z,102244.63
2022-08-07T11:25:25.662Z,102209.03
2022-08-07T11:28:35.617Z,102189.66
2022-08-07T11:32:12.616Z,102181.00
2022-08-07T11:35:26.817Z,102179.13
2022-08-07T11:38:53.869Z,102190.13
2022-08-07T11:42:19.719Z,102182.78
2022-08-07T11:45:35.683Z,102178.16
2022-08-07T11:49:50.112Z,102199.94
2022-08-07T11:53:15.683Z,102201.56
2022-08-07T11:56:44.691Z,102163.78
2022-08-07T12:00:12.046Z,102158.84
2022-08-07T12:03:53.132Z,102173.03
2022-08-07T12:07:07.952Z,102168.53
2022-08-07T12:10:41.606Z,102164.03
2022-08-07T12:14:03.779Z,102145.94
2022-08-07T12:17:20.411Z,102156.81
2022-08-07T12:20:45.111Z,102151.06
2022-08-07T12:24:12.466Z,102144.16
2022-08-07T12:28:08.605Z,102143.56
2022-08-07T12:31:11.528Z,102124.50
2022-08-07T12:34:21.885Z,102128.34
2022-08-07T12:38:09.413Z,102121.16
2022-08-07T12:40:57.266Z,102122.81
2022-08-07T12:44:06.382Z,102124.50
2022-08-07T12:47:21.425Z,102105.88
2022-08-07T12:50:56.203Z,102103.41
2022-08-07T12:54:37.878Z,102124.72
2022-08-07T12:58:02.353Z,102117.78
2022-08-07T13:01:14.516Z,102121.19
2022-08-07T13:05:01.017Z,102109.84
2022-08-07T13:08:32.341Z,102121.16
2022-08-07T13:12:15.437Z,102119.66
2022-08-07T13:15:38.253Z,102135.97
2022-08-07T13:18:57.008Z,102146.88
2022-08-07T13:22:19.537Z,102152.97
2022-08-07T13:25:39.267Z,102146.25
2022-08-07T13:28:58.450Z,102136.91
2022-08-07T13:32:06.421Z,102127.53
2022-08-07T13:36:01.317Z,102125.38
2022-08-07T13:39:28.558Z,102117.94
2022-08-07T13:42:42.952Z,102109.00
2022-08-07T13:46:11.977Z,102110.84
2022-08-07T13:50:32.841Z,102112.38
2022-08-07T13:52:47.067Z,102119.13
2022-08-07T13:55:54.727Z,102129.09
2022-08-07T13:59:01.979Z,102146.75
2022-08-07T14:02:15.078Z,102151.75
2022-08-07T14:05:23.480Z,102149.94
2022-08-07T14:08:29.566Z,102154.19
2022-08-07T14:11:53.340Z,102139.16
2022-08-07T14:15:06.967Z,102138.22
2022-08-07T14:18:29.656Z,102132.66
2022-08-07T14:22:03.410Z,102123.69
2022-08-07T14:25:13.682Z,102101.19
2022-08-07T14:28:19.189Z,102096.50
2022-08-07T14:31:25.399Z,102092.34
2022-08-07T14:34:48.196Z,102097.31
2022-08-07T14:38:05.821Z,102099.78
2022-08-07T14:41:15.090Z,102087.44
2022-08-07T14:44:20.455Z,102099.59
2022-08-07T14:47:32.712Z,102094.16
2022-08-07T14:50:44.723Z,102084.88
2022-08-07T14:54:30.906Z,102081.91
2022-08-07T14:57:54.885Z,102093.72
2022-08-07T15:00:44.470Z,102096.38
2022-08-07T15:03:53.966Z,102094.50
2022-08-07T15:06:58.926Z,102090.16
2022-08-07T15:10:10.926Z,102087.59
2022-08-07T15:16:54.877Z,102083.78
2022-08-07T15:20:31.444Z,102096.56
2022-08-07T15:23:53.596Z,102107.53
2022-08-07T15:27:12.187Z,102087.16
2022-08-07T15:30:19.904Z,102113.59
2022-08-07T15:33:33.399Z,102057.59
2022-08-07T15:37:03.949Z,102056.38
2022-08-07T15:43:56.410Z,102058.81
2022-08-07T15:47:08.958Z,102049.69
2022-08-07T15:51:01.093Z,102046.81
2022-08-07T15:53:52.905Z,102043.38
2022-08-07T15:56:59.707Z,102063.19
2022-08-07T16:00:06.705Z,102062.66
2022-08-07T16:03:21.835Z,102059.69
2022-08-07T16:06:51.599Z,102065.53
2022-08-07T16:10:14.737Z,102057.34
2022-08-07T16:13:59.246Z,102042.81
2022-08-07T16:17:14.948Z,102057.97
2022-08-07T16:20:41.567Z,102059.47
2022-08-07T16:24:34.769Z,102070.13
2022-08-07T16:27:47.335Z,102053.91
2022-08-07T16:31:51.527Z,102067.53
2022-08-07T16:34:55.837Z,102080.09
2022-08-07T16:38:50.801Z,102056.66
2022-08-07T16:42:16.408Z,102043.13
2022-08-07T16:46:33.432Z,102052.59
2022-08-07T16:50:26.583Z,102044.19
2022-08-07T16:54:06.708Z,102059.84
2022-08-07T16:58:01.557Z,102060.47
2022-08-07T17:01:19.853Z,102044.06
2022-08-07T17:05:01.282Z,102035.97
2022-08-07T17:08:09.177Z,102022.75
2022-08-07T17:11:22.315Z,102044.69
2022-08-07T17:14:55.938Z,102020.19
2022-08-07T17:18:14.300Z,102047.00
2022-08-07T17:21:51.888Z,102024.88
2022-08-07T17:25:16.239Z,102045.63
2022-08-07T17:29:04.520Z,102065.16
2022-08-07T17:32:35.556Z,102059.94
2022-08-07T17:36:20.811Z,102054.13
2022-08-07T17:40:08.253Z,102062.94
2022-08-07T17:43:18.485Z,102072.53
2022-08-07T17:46:35.905Z,102065.09
2022-08-07T17:49:45.477Z,102067.38
2022-08-07T17:54:00.095Z,102064.41
2022-08-07T17:56:42.134Z,102076.31
2022-08-07T18:00:01.199Z,102072.72
2022-08-07T18:03:25.686Z,102075.75
2022-08-07T18:06:38.637Z,102067.41
2022-08-07T18:10:07.491Z,102063.88
2022-08-07T18:13:17.503Z,102073.94
2022-08-07T18:16:57.727Z,102083.25
2022-08-07T18:21:06.351Z,102084.28
2022-08-07T18:24:07.255Z,102096.16
2022-08-07T18:27:46.104Z,102101.16
2022-08-07T18:31:04.277Z,102108.25
2022-08-07T18:34:35.928Z,102125.41
2022-08-07T18:38:58.181Z,102136.38
2022-08-07T18:41:45.821Z,102147.56
2022-08-07T18:45:44.993Z,102143.38
2022-08-07T18:50:19.571Z,102146.53
2022-08-07T18:52:53.720Z,102146.31
2022-08-07T18:56:20.326Z,102146.59
2022-08-07T18:59:47.309Z,102156.81
2022-08-07T19:03:11.880Z,102154.63
2022-08-07T19:06:20.890Z,102162.16
2022-08-07T19:09:57.542Z,102170.59
2022-08-07T19:13:11.762Z,102188.88
2022-08-07T19:17:06.760Z,102196.84
2022-08-07T19:20:29.158Z,102211.06
2022-08-07T19:23:59.454Z,102220.88
2022-08-07T19:28:58.696Z,102221.84
2022-08-07T19:31:04.233Z,102225.72
2022-08-07T19:34:00.641Z,102228.66
2022-08-07T19:37:17.137Z,102245.88
2022-08-07T19:40:31.846Z,102275.03
2022-08-07T19:43:48.721Z,102309.59
2022-08-07T19:47:11.797Z,102323.00
2022-08-07T19:50:44.206Z,102332.00
2022-08-07T19:54:35.745Z,102308.28
2022-08-07T19:58:00.289Z,102311.06
2022-08-07T20:00:56.880Z,102315.53
2022-08-07T20:04:01.434Z,102305.16
2022-08-07T20:07:08.903Z,102325.41
2022-08-07T20:10:38.059Z,102330.22
2022-08-07T20:13:49.783Z,102330.22
2022-08-07T20:16:57.152Z,102311.81
2022-08-07T20:20:03.983Z,102313.38
2022-08-07T20:23:10.786Z,102322.56
2022-08-07T20:26:45.165Z,102333.16
2022-08-07T20:29:58.472Z,102353.56
2022-08-07T20:33:09.178Z,102359.78
2022-08-07T20:36:32.395Z,102362.69
2022-08-07T20:40:02.103Z,102343.44
2022-08-07T20:43:09.743Z,102327.63
2022-08-07T20:46:32.391Z,102341.72
2022-08-07T20:49:57.832Z,102339.22
2022-08-07T20:53:10.306Z,102340.25
2022-08-07T20:56:16.585Z,102348.19
2022-08-07T21:00:07.502Z,102340.38
2022-08-07T21:02:58.063Z,102354.41
2022-08-07T21:06:21.530Z,102357.13
2022-08-07T21:09:51.507Z,102375.59
2022-08-07T21:12:59.810Z,102385.69
2022-08-07T21:16:06.185Z,102382.47
2022-08-07T21:19:14.072Z,102384.41
2022-08-07T21:22:19.901Z,102374.06
2022-08-07T21:26:07.221Z,102364.34
2022-08-07T21:29:37.462Z,102349.59
2022-08-07T21:33:05.022Z,102356.59
2022-08-07T21:36:31.189Z,102366.41
2022-08-07T21:40:02.509Z,102360.47
2022-08-07T21:43:10.790Z,102364.03
2022-08-07T21:47:00.509Z,102359.88
2022-08-07T21:50:14.488Z,102353.66
2022-08-07T21:53:52.354Z,102356.22
2022-08-07T21:57:31.407Z,102372.41
2022-08-07T22:00:43.966Z,102353.94
2022-08-07T22:03:57.567Z,102340.78
2022-08-07T22:07:31.708Z,102358.16
2022-08-07T22:10:59.599Z,102363.78
2022-08-07T22:14:14.907Z,102354.22
2022-08-07T22:17:37.686Z,102339.25
2022-08-07T22:20:52.617Z,102335.13
2022-08-07T22:24:33.008Z,102337.81
2022-08-07T22:28:07.216Z,102332.59
2022-08-07T22:31:45.397Z,102357.00
2022-08-07T22:35:00.902Z,102371.38
2022-08-07T22:38:40.564Z,102349.66
2022-08-07T22:42:19.278Z,102329.50
2022-08-07T22:46:22.002Z,102326.09
2022-08-07T22:49:54.190Z,102321.91
2022-08-07T22:53:07.910Z,102328.28
2022-08-07T22:56:30.042Z,102329.97
2022-08-07T23:00:12.781Z,102319.00
2022-08-07T23:03:28.328Z,102351.31
2022-08-07T23:07:00.763Z,102359.72
2022-08-07T23:10:37.580Z,102373.06
2022-08-07T23:14:16.293Z,102366.28
2022-08-07T23:17:37.340Z,102353.06
2022-08-07T23:21:23.349Z,102352.34
2022-08-07T23:24:50.347Z,102343.63
2022-08-07T23:28:20.531Z,102366.34
2022-08-07T23:32:50.292Z,102365.88
2022-08-07T23:35:19.991Z,102376.19
2022-08-07T23:38:42.718Z,102367.66
2022-08-07T23:42:04.337Z,102351.38
2022-08-07T23:45:32.988Z,102348.06
2022-08-07T23:49:15.652Z,102346.22
2022-08-07T23:53:00.046Z,102375.03
2022-08-07T23:56:31.366Z,102390.91
